sensor_id;sensor_type;location;lat;lon;timestamp;P1;durP1;ratioP1;P2;durP2;ratioP2
62362;SDS011;48396;48.426;1.500;2023-04-25T00:01:22;13.05;;;4.63;;
62362;SDS011;48396;48.426;1.500;2023-04-25T00:03:48;14.40;;;5.18;;
62362;SDS011;48396;48.426;1.500;2023-04-25T00:06:13;11.35;;;4.50;;
62362;SDS011;48396;48.426;1.500;2023-04-25T00:08:39;9.65;;;4.47;;
62362;SDS011;48396;48.426;1.500;2023-04-25T00:11:05;11.10;;;4.00;;
62362;SDS011;48396;48.426;1.500;2023-04-25T00:13:31;11.43;;;4.32;;
62362;SDS011;48396;48.426;1.500;2023-04-25T00:15:56;10.50;;;3.78;;
62362;SDS011;48396;48.426;1.500;2023-04-25T00:18:23;10.40;;;4.28;;
62362;SDS011;48396;48.426;1.500;2023-04-25T00:20:49;13.43;;;4.05;;
62362;SDS011;48396;48.426;1.500;2023-04-25T00:23:18;9.75;;;3.78;;
62362;SDS011;48396;48.426;1.500;2023-04-25T00:25:44;13.85;;;4.20;;
62362;SDS011;48396;48.426;1.500;2023-04-25T00:28:10;11.73;;;4.13;;
62362;SDS011;48396;48.426;1.500;2023-04-25T00:30:36;10.50;;;3.85;;
62362;SDS011;48396;48.426;1.500;2023-04-25T00:33:01;9.02;;;3.80;;
62362;SDS011;48396;48.426;1.500;2023-04-25T00:35:27;7.28;;;3.55;;
62362;SDS011;48396;48.426;1.500;2023-04-25T00:37:53;10.70;;;4.00;;
62362;SDS011;48396;48.426;1.500;2023-04-25T00:40:20;9.63;;;3.58;;
62362;SDS011;48396;48.426;1.500;2023-04-25T00:42:45;9.30;;;3.55;;
62362;SDS011;48396;48.426;1.500;2023-04-25T00:45:12;11.82;;;3.85;;
62362;SDS011;48396;48.426;1.500;2023-04-25T00:47:41;10.90;;;3.80;;
62362;SDS011;48396;48.426;1.500;2023-04-25T00:50:08;12.48;;;3.42;;
62362;SDS011;48396;48.426;1.500;2023-04-25T00:52:34;9.13;;;3.60;;
62362;SDS011;48396;48.426;1.500;2023-04-25T00:55:00;7.65;;;3.70;;
62362;SDS011;48396;48.426;1.500;2023-04-25T00:57:26;9.00;;;3.40;;
62362;SDS011;48396;48.426;1.500;2023-04-25T00:59:52;17.55;;;3.85;;
62362;SDS011;48396;48.426;1.500;2023-04-25T01:02:19;8.70;;;3.42;;
62362;SDS011;48396;48.426;1.500;2023-04-25T01:04:45;11.60;;;3.58;;
62362;SDS011;48396;48.426;1.500;2023-04-25T01:07:12;12.55;;;4.07;;
62362;SDS011;48396;48.426;1.500;2023-04-25T01:09:38;12.55;;;3.67;;
62362;SDS011;48396;48.426;1.500;2023-04-25T01:12:04;11.25;;;3.88;;
62362;SDS011;48396;48.426;1.500;2023-04-25T01:14:29;11.30;;;3.65;;
62362;SDS011;48396;48.426;1.500;2023-04-25T01:16:55;8.93;;;3.55;;
62362;SDS011;48396;48.426;1.500;2023-04-25T01:19:21;8.50;;;3.60;;
62362;SDS011;48396;48.426;1.500;2023-04-25T01:21:46;13.38;;;3.55;;
62362;SDS011;48396;48.426;1.500;2023-04-25T01:24:13;9.38;;;3.70;;
62362;SDS011;48396;48.426;1.500;2023-04-25T01:26:39;10.05;;;3.08;;
62362;SDS011;48396;48.426;1.500;2023-04-25T01:29:09;8.60;;;3.15;;
62362;SDS011;48396;48.426;1.500;2023-04-25T01:31:35;11.73;;;3.72;;
62362;SDS011;48396;48.426;1.500;2023-04-25T01:34:02;12.77;;;4.00;;
62362;SDS011;48396;48.426;1.500;2023-04-25T01:36:27;8.23;;;3.28;;
62362;SDS011;48396;48.426;1.500;2023-04-25T01:38:53;14.18;;;3.75;;
62362;SDS011;48396;48.426;1.500;2023-04-25T01:41:20;10.18;;;3.60;;
62362;SDS011;48396;48.426;1.500;2023-04-25T01:43:48;8.35;;;3.50;;
62362;SDS011;48396;48.426;1.500;2023-04-25T01:46:13;8.68;;;3.25;;
62362;SDS011;48396;48.426;1.500;2023-04-25T01:48:39;9.45;;;3.38;;
62362;SDS011;48396;48.426;1.500;2023-04-25T01:51:05;10.55;;;3.80;;
62362;SDS011;48396;48.426;1.500;2023-04-25T01:53:31;11.60;;;3.90;;
62362;SDS011;48396;48.426;1.500;2023-04-25T01:55:57;8.80;;;3.33;;
62362;SDS011;48396;48.426;1.500;2023-04-25T01:58:22;11.60;;;3.15;;
62362;SDS011;48396;48.426;1.500;2023-04-25T02:00:48;8.77;;;3.42;;
62362;SDS011;48396;48.426;1.500;2023-04-25T02:03:13;11.52;;;3.40;;
62362;SDS011;48396;48.426;1.500;2023-04-25T02:05:39;11.02;;;3.45;;
62362;SDS011;48396;48.426;1.500;2023-04-25T02:08:06;10.98;;;3.83;;
62362;SDS011;48396;48.426;1.500;2023-04-25T02:10:33;12.82;;;3.85;;
62362;SDS011;48396;48.426;1.500;2023-04-25T02:12:59;12.45;;;4.10;;
62362;SDS011;48396;48.426;1.500;2023-04-25T02:15:24;12.23;;;3.97;;
62362;SDS011;48396;48.426;1.500;2023-04-25T02:17:50;8.88;;;3.60;;
62362;SDS011;48396;48.426;1.500;2023-04-25T02:20:18;10.70;;;3.60;;
62362;SDS011;48396;48.426;1.500;2023-04-25T02:22:45;13.20;;;4.53;;
62362;SDS011;48396;48.426;1.500;2023-04-25T02:25:11;12.82;;;3.95;;
62362;SDS011;48396;48.426;1.500;2023-04-25T02:27:36;12.57;;;3.95;;
62362;SDS011;48396;48.426;1.500;2023-04-25T02:30:03;11.93;;;4.10;;
62362;SDS011;48396;48.426;1.500;2023-04-25T02:32:29;9.68;;;4.22;;
62362;SDS011;48396;48.426;1.500;2023-04-25T02:34:55;9.75;;;3.90;;
62362;SDS011;48396;48.426;1.500;2023-04-25T02:37:23;8.68;;;3.97;;
62362;SDS011;48396;48.426;1.500;2023-04-25T02:39:49;10.45;;;3.65;;
62362;SDS011;48396;48.426;1.500;2023-04-25T02:42:14;11.18;;;4.13;;
62362;SDS011;48396;48.426;1.500;2023-04-25T02:44:40;13.23;;;3.92;;
62362;SDS011;48396;48.426;1.500;2023-04-25T02:47:06;12.65;;;3.78;;
62362;SDS011;48396;48.426;1.500;2023-04-25T02:49:31;10.73;;;3.85;;
62362;SDS011;48396;48.426;1.500;2023-04-25T02:51:57;11.95;;;4.25;;
62362;SDS011;48396;48.426;1.500;2023-04-25T02:54:22;8.73;;;3.50;;
62362;SDS011;48396;48.426;1.500;2023-04-25T02:56:48;10.98;;;3.90;;
62362;SDS011;48396;48.426;1.500;2023-04-25T02:59:13;10.18;;;4.10;;
62362;SDS011;48396;48.426;1.500;2023-04-25T03:01:39;9.32;;;4.38;;
62362;SDS011;48396;48.426;1.500;2023-04-25T03:04:04;9.57;;;3.50;;
62362;SDS011;48396;48.426;1.500;2023-04-25T03:06:30;15.73;;;4.53;;
62362;SDS011;48396;48.426;1.500;2023-04-25T03:08:56;12.10;;;4.05;;
62362;SDS011;48396;48.426;1.500;2023-04-25T03:11:21;11.48;;;3.95;;
62362;SDS011;48396;48.426;1.500;2023-04-25T03:13:47;13.77;;;4.28;;
62362;SDS011;48396;48.426;1.500;2023-04-25T03:16:12;11.85;;;4.65;;
62362;SDS011;48396;48.426;1.500;2023-04-25T03:18:38;12.95;;;4.28;;
62362;SDS011;48396;48.426;1.500;2023-04-25T03:21:03;10.07;;;3.92;;
62362;SDS011;48396;48.426;1.500;2023-04-25T03:23:29;11.05;;;3.70;;
62362;SDS011;48396;48.426;1.500;2023-04-25T03:25:55;13.73;;;4.35;;
62362;SDS011;48396;48.426;1.500;2023-04-25T03:28:21;14.20;;;4.35;;
62362;SDS011;48396;48.426;1.500;2023-04-25T03:30:47;15.50;;;4.50;;
62362;SDS011;48396;48.426;1.500;2023-04-25T03:33:12;15.63;;;4.50;;
62362;SDS011;48396;48.426;1.500;2023-04-25T03:35:38;12.93;;;4.72;;
62362;SDS011;48396;48.426;1.500;2023-04-25T03:38:03;14.30;;;4.57;;
62362;SDS011;48396;48.426;1.500;2023-04-25T03:40:29;12.55;;;4.18;;
62362;SDS011;48396;48.426;1.500;2023-04-25T03:42:55;11.43;;;4.38;;
62362;SDS011;48396;48.426;1.500;2023-04-25T03:45:20;12.82;;;4.22;;
62362;SDS011;48396;48.426;1.500;2023-04-25T03:47:46;13.88;;;4.85;;
62362;SDS011;48396;48.426;1.500;2023-04-25T03:50:12;16.35;;;4.82;;
62362;SDS011;48396;48.426;1.500;2023-04-25T03:52:37;9.00;;;3.80;;
62362;SDS011;48396;48.426;1.500;2023-04-25T03:55:03;14.88;;;5.07;;
62362;SDS011;48396;48.426;1.500;2023-04-25T03:57:29;11.15;;;4.45;;
62362;SDS011;48396;48.426;1.500;2023-04-25T03:59:55;11.60;;;4.40;;
62362;SDS011;48396;48.426;1.500;2023-04-25T04:02:20;11.57;;;4.53;;
62362;SDS011;48396;48.426;1.500;2023-04-25T04:04:46;11.88;;;4.38;;
62362;SDS011;48396;48.426;1.500;2023-04-25T04:07:12;14.13;;;4.90;;
62362;SDS011;48396;48.426;1.500;2023-04-25T04:09:38;13.02;;;4.53;;
62362;SDS011;48396;48.426;1.500;2023-04-25T04:12:04;14.65;;;4.65;;
62362;SDS011;48396;48.426;1.500;2023-04-25T04:14:30;12.93;;;4.43;;
62362;SDS011;48396;48.426;1.500;2023-04-25T04:16:55;11.30;;;4.38;;
62362;SDS011;48396;48.426;1.500;2023-04-25T04:19:21;14.07;;;5.07;;
62362;SDS011;48396;48.426;1.500;2023-04-25T04:21:46;11.68;;;4.30;;
62362;SDS011;48396;48.426;1.500;2023-04-25T04:24:12;14.07;;;4.45;;
62362;SDS011;48396;48.426;1.500;2023-04-25T04:26:38;8.48;;;3.80;;
62362;SDS011;48396;48.426;1.500;2023-04-25T04:29:04;11.95;;;4.03;;
62362;SDS011;48396;48.426;1.500;2023-04-25T04:31:30;12.85;;;4.32;;
62362;SDS011;48396;48.426;1.500;2023-04-25T04:33:55;10.02;;;3.97;;
62362;SDS011;48396;48.426;1.500;2023-04-25T04:36:21;10.50;;;3.90;;
62362;SDS011;48396;48.426;1.500;2023-04-25T04:38:48;12.85;;;4.28;;
62362;SDS011;48396;48.426;1.500;2023-04-25T04:41:13;10.85;;;4.32;;
62362;SDS011;48396;48.426;1.500;2023-04-25T04:43:39;10.52;;;4.32;;
62362;SDS011;48396;48.426;1.500;2023-04-25T04:46:05;13.18;;;4.45;;
62362;SDS011;48396;48.426;1.500;2023-04-25T04:48:31;11.52;;;4.15;;
62362;SDS011;48396;48.426;1.500;2023-04-25T04:51:00;11.13;;;4.20;;
62362;SDS011;48396;48.426;1.500;2023-04-25T04:53:26;12.15;;;4.47;;
62362;SDS011;48396;48.426;1.500;2023-04-25T04:55:52;13.82;;;4.38;;
62362;SDS011;48396;48.426;1.500;2023-04-25T04:58:18;13.77;;;5.15;;
62362;SDS011;48396;48.426;1.500;2023-04-25T05:00:43;11.38;;;4.40;;
62362;SDS011;48396;48.426;1.500;2023-04-25T05:03:09;11.57;;;3.97;;
62362;SDS011;48396;48.426;1.500;2023-04-25T05:05:36;9.55;;;4.30;;
62362;SDS011;48396;48.426;1.500;2023-04-25T05:08:04;9.45;;;3.95;;
62362;SDS011;48396;48.426;1.500;2023-04-25T05:10:30;12.10;;;4.80;;
62362;SDS011;48396;48.426;1.500;2023-04-25T05:12:56;11.85;;;4.20;;
62362;SDS011;48396;48.426;1.500;2023-04-25T05:15:22;10.48;;;4.30;;
62362;SDS011;48396;48.426;1.500;2023-04-25T05:17:47;11.45;;;4.57;;
62362;SDS011;48396;48.426;1.500;2023-04-25T05:20:13;10.95;;;4.13;;
62362;SDS011;48396;48.426;1.500;2023-04-25T05:22:39;9.75;;;4.15;;
62362;SDS011;48396;48.426;1.500;2023-04-25T05:25:06;8.13;;;4.15;;
62362;SDS011;48396;48.426;1.500;2023-04-25T05:27:33;11.93;;;4.00;;
62362;SDS011;48396;48.426;1.500;2023-04-25T05:29:58;11.93;;;4.50;;
62362;SDS011;48396;48.426;1.500;2023-04-25T05:32:24;13.82;;;4.57;;
62362;SDS011;48396;48.426;1.500;2023-04-25T05:34:50;11.68;;;4.95;;
62362;SDS011;48396;48.426;1.500;2023-04-25T05:37:16;11.57;;;4.30;;
62362;SDS011;48396;48.426;1.500;2023-04-25T05:39:42;9.27;;;4.38;;
62362;SDS011;48396;48.426;1.500;2023-04-25T05:42:07;10.30;;;4.45;;
62362;SDS011;48396;48.426;1.500;2023-04-25T05:44:33;10.68;;;4.53;;
62362;SDS011;48396;48.426;1.500;2023-04-25T05:46:58;10.60;;;4.95;;
62362;SDS011;48396;48.426;1.500;2023-04-25T05:49:24;13.77;;;4.90;;
62362;SDS011;48396;48.426;1.500;2023-04-25T05:51:50;11.50;;;4.30;;
62362;SDS011;48396;48.426;1.500;2023-04-25T05:54:15;9.68;;;4.13;;
62362;SDS011;48396;48.426;1.500;2023-04-25T05:56:41;13.38;;;4.60;;
62362;SDS011;48396;48.426;1.500;2023-04-25T05:59:06;11.57;;;4.30;;
62362;SDS011;48396;48.426;1.500;2023-04-25T06:01:32;13.68;;;4.90;;
62362;SDS011;48396;48.426;1.500;2023-04-25T06:03:58;10.52;;;4.60;;
62362;SDS011;48396;48.426;1.500;2023-04-25T06:06:23;13.07;;;4.68;;
62362;SDS011;48396;48.426;1.500;2023-04-25T06:08:49;12.57;;;4.82;;
62362;SDS011;48396;48.426;1.500;2023-04-25T06:11:15;9.60;;;4.30;;
62362;SDS011;48396;48.426;1.500;2023-04-25T06:13:41;13.77;;;4.85;;
62362;SDS011;48396;48.426;1.500;2023-04-25T06:16:06;13.25;;;4.45;;
62362;SDS011;48396;48.426;1.500;2023-04-25T06:18:32;8.25;;;4.45;;
62362;SDS011;48396;48.426;1.500;2023-04-25T06:20:58;12.35;;;4.68;;
62362;SDS011;48396;48.426;1.500;2023-04-25T06:23:23;12.90;;;5.85;;
62362;SDS011;48396;48.426;1.500;2023-04-25T06:25:49;10.60;;;4.85;;
62362;SDS011;48396;48.426;1.500;2023-04-25T06:28:14;11.65;;;4.97;;
62362;SDS011;48396;48.426;1.500;2023-04-25T06:30:40;11.63;;;5.35;;
62362;SDS011;48396;48.426;1.500;2023-04-25T06:33:06;8.95;;;4.38;;
62362;SDS011;48396;48.426;1.500;2023-04-25T06:35:33;12.40;;;5.47;;
62362;SDS011;48396;48.426;1.500;2023-04-25T06:37:59;12.48;;;4.97;;
62362;SDS011;48396;48.426;1.500;2023-04-25T06:40:25;12.45;;;5.47;;
62362;SDS011;48396;48.426;1.500;2023-04-25T06:42:50;12.57;;;4.82;;
62362;SDS011;48396;48.426;1.500;2023-04-25T06:45:16;12.50;;;5.00;;
62362;SDS011;48396;48.426;1.500;2023-04-25T06:47:41;10.25;;;4.78;;
62362;SDS011;48396;48.426;1.500;2023-04-25T06:50:07;11.10;;;5.32;;
62362;SDS011;48396;48.426;1.500;2023-04-25T06:52:33;9.52;;;4.60;;
62362;SDS011;48396;48.426;1.500;2023-04-25T06:54:59;10.65;;;4.70;;
62362;SDS011;48396;48.426;1.500;2023-04-25T06:57:25;12.73;;;5.07;;
62362;SDS011;48396;48.426;1.500;2023-04-25T06:59:50;9.52;;;4.50;;
62362;SDS011;48396;48.426;1.500;2023-04-25T07:02:16;14.18;;;5.03;;
62362;SDS011;48396;48.426;1.500;2023-04-25T07:04:41;11.88;;;5.20;;
62362;SDS011;48396;48.426;1.500;2023-04-25T07:07:07;10.23;;;5.05;;
62362;SDS011;48396;48.426;1.500;2023-04-25T07:09:32;12.68;;;4.97;;
62362;SDS011;48396;48.426;1.500;2023-04-25T07:11:59;11.77;;;4.82;;
62362;SDS011;48396;48.426;1.500;2023-04-25T07:14:26;9.15;;;4.60;;
62362;SDS011;48396;48.426;1.500;2023-04-25T07:16:52;11.77;;;5.15;;
62362;SDS011;48396;48.426;1.500;2023-04-25T07:19:17;11.32;;;4.45;;
62362;SDS011;48396;48.426;1.500;2023-04-25T07:21:43;10.75;;;4.53;;
62362;SDS011;48396;48.426;1.500;2023-04-25T07:24:09;9.77;;;4.13;;
62362;SDS011;48396;48.426;1.500;2023-04-25T07:26:34;5.40;;;3.50;;
62362;SDS011;48396;48.426;1.500;2023-04-25T07:29:00;6.10;;;3.80;;
62362;SDS011;48396;48.426;1.500;2023-04-25T07:31:25;7.47;;;4.25;;
62362;SDS011;48396;48.426;1.500;2023-04-25T07:33:51;8.63;;;3.65;;
62362;SDS011;48396;48.426;1.500;2023-04-25T07:36:17;11.75;;;4.40;;
62362;SDS011;48396;48.426;1.500;2023-04-25T07:38:42;8.57;;;4.60;;
62362;SDS011;48396;48.426;1.500;2023-04-25T07:41:08;7.22;;;4.05;;
62362;SDS011;48396;48.426;1.500;2023-04-25T07:43:34;8.13;;;3.95;;
62362;SDS011;48396;48.426;1.500;2023-04-25T07:45:59;7.13;;;3.60;;
62362;SDS011;48396;48.426;1.500;2023-04-25T07:48:25;10.00;;;3.97;;
62362;SDS011;48396;48.426;1.500;2023-04-25T07:51:09;9.60;;;3.88;;
62362;SDS011;48396;48.426;1.500;2023-04-25T07:53:35;8.57;;;4.07;;
62362;SDS011;48396;48.426;1.500;2023-04-25T07:56:02;9.10;;;4.05;;
62362;SDS011;48396;48.426;1.500;2023-04-25T07:58:28;8.43;;;4.03;;
62362;SDS011;48396;48.426;1.500;2023-04-25T08:00:53;7.45;;;3.47;;
62362;SDS011;48396;48.426;1.500;2023-04-25T08:03:19;9.00;;;4.13;;
62362;SDS011;48396;48.426;1.500;2023-04-25T08:05:46;9.10;;;4.15;;
62362;SDS011;48396;48.426;1.500;2023-04-25T08:08:11;8.75;;;3.80;;
62362;SDS011;48396;48.426;1.500;2023-04-25T08:10:37;9.30;;;4.28;;
62362;SDS011;48396;48.426;1.500;2023-04-25T08:13:02;8.02;;;3.80;;
62362;SDS011;48396;48.426;1.500;2023-04-25T08:15:28;8.77;;;3.78;;
62362;SDS011;48396;48.426;1.500;2023-04-25T08:17:53;10.80;;;4.18;;
62362;SDS011;48396;48.426;1.500;2023-04-25T08:20:19;9.35;;;4.13;;
62362;SDS011;48396;48.426;1.500;2023-04-25T08:22:45;7.05;;;3.75;;
62362;SDS011;48396;48.426;1.500;2023-04-25T08:25:10;9.35;;;4.32;;
62362;SDS011;48396;48.426;1.500;2023-04-25T08:27:36;7.88;;;3.88;;
62362;SDS011;48396;48.426;1.500;2023-04-25T08:30:02;7.10;;;3.47;;
62362;SDS011;48396;48.426;1.500;2023-04-25T08:32:28;6.25;;;3.78;;
62362;SDS011;48396;48.426;1.500;2023-04-25T08:34:54;8.68;;;4.18;;
62362;SDS011;48396;48.426;1.500;2023-04-25T08:37:20;5.72;;;4.03;;
62362;SDS011;48396;48.426;1.500;2023-04-25T08:39:46;6.93;;;3.78;;
62362;SDS011;48396;48.426;1.500;2023-04-25T08:42:13;7.63;;;4.00;;
62362;SDS011;48396;48.426;1.500;2023-04-25T08:44:40;7.40;;;3.90;;
62362;SDS011;48396;48.426;1.500;2023-04-25T08:47:06;7.80;;;4.13;;
62362;SDS011;48396;48.426;1.500;2023-04-25T08:49:32;7.28;;;3.70;;
62362;SDS011;48396;48.426;1.500;2023-04-25T08:52:02;5.88;;;3.55;;
62362;SDS011;48396;48.426;1.500;2023-04-25T08:54:32;8.05;;;3.70;;
62362;SDS011;48396;48.426;1.500;2023-04-25T08:57:01;7.47;;;3.83;;
62362;SDS011;48396;48.426;1.500;2023-04-25T08:59:28;8.52;;;3.70;;
62362;SDS011;48396;48.426;1.500;2023-04-25T09:01:55;6.75;;;3.72;;
62362;SDS011;48396;48.426;1.500;2023-04-25T09:04:21;5.80;;;3.47;;
62362;SDS011;48396;48.426;1.500;2023-04-25T09:06:47;7.10;;;3.70;;
62362;SDS011;48396;48.426;1.500;2023-04-25T09:09:13;7.82;;;3.88;;
62362;SDS011;48396;48.426;1.500;2023-04-25T09:11:39;8.15;;;3.50;;
62362;SDS011;48396;48.426;1.500;2023-04-25T09:14:12;8.05;;;3.50;;
62362;SDS011;48396;48.426;1.500;2023-04-25T09:17:03;11.02;;;3.90;;
62362;SDS011;48396;48.426;1.500;2023-04-25T09:19:30;8.35;;;3.90;;
62362;SDS011;48396;48.426;1.500;2023-04-25T09:21:59;8.55;;;3.80;;
62362;SDS011;48396;48.426;1.500;2023-04-25T09:27:02;8.07;;;3.83;;
62362;SDS011;48396;48.426;1.500;2023-04-25T09:29:29;8.93;;;3.97;;
62362;SDS011;48396;48.426;1.500;2023-04-25T09:34:45;7.68;;;3.90;;
62362;SDS011;48396;48.426;1.500;2023-04-25T09:37:25;7.25;;;3.97;;
62362;SDS011;48396;48.426;1.500;2023-04-25T09:39:53;8.35;;;3.83;;
62362;SDS011;48396;48.426;1.500;2023-04-25T09:42:23;10.00;;;4.28;;
62362;SDS011;48396;48.426;1.500;2023-04-25T09:44:51;10.85;;;4.28;;
62362;SDS011;48396;48.426;1.500;2023-04-25T09:47:18;8.30;;;4.07;;
62362;SDS011;48396;48.426;1.500;2023-04-25T09:49:46;8.48;;;4.10;;
62362;SDS011;48396;48.426;1.500;2023-04-25T09:52:19;7.47;;;3.63;;
62362;SDS011;48396;48.426;1.500;2023-04-25T09:54:46;6.90;;;3.60;;
62362;SDS011;48396;48.426;1.500;2023-04-25T09:57:14;9.07;;;3.70;;
62362;SDS011;48396;48.426;1.500;2023-04-25T09:59:42;7.72;;;3.65;;
62362;SDS011;48396;48.426;1.500;2023-04-25T10:02:19;6.72;;;3.60;;
62362;SDS011;48396;48.426;1.500;2023-04-25T10:04:50;5.47;;;3.28;;
62362;SDS011;48396;48.426;1.500;2023-04-25T10:07:19;6.13;;;3.40;;
62362;SDS011;48396;48.426;1.500;2023-04-25T10:09:48;8.48;;;3.47;;
62362;SDS011;48396;48.426;1.500;2023-04-25T10:12:33;8.68;;;3.55;;
62362;SDS011;48396;48.426;1.500;2023-04-25T10:14:59;5.45;;;3.30;;
62362;SDS011;48396;48.426;1.500;2023-04-25T10:17:26;8.48;;;3.10;;
62362;SDS011;48396;48.426;1.500;2023-04-25T10:19:54;7.30;;;3.25;;
62362;SDS011;48396;48.426;1.500;2023-04-25T10:22:34;9.98;;;3.42;;
62362;SDS011;48396;48.426;1.500;2023-04-25T10:25:01;10.55;;;3.30;;
62362;SDS011;48396;48.426;1.500;2023-04-25T10:27:31;6.28;;;3.60;;
62362;SDS011;48396;48.426;1.500;2023-04-25T10:30:00;7.25;;;3.63;;
62362;SDS011;48396;48.426;1.500;2023-04-25T10:32:36;5.88;;;3.13;;
62362;SDS011;48396;48.426;1.500;2023-04-25T10:35:17;8.05;;;3.92;;
62362;SDS011;48396;48.426;1.500;2023-04-25T10:38:03;8.15;;;3.50;;
62362;SDS011;48396;48.426;1.500;2023-04-25T10:40:30;7.95;;;3.58;;
62362;SDS011;48396;48.426;1.500;2023-04-25T10:45:56;9.88;;;3.58;;
62362;SDS011;48396;48.426;1.500;2023-04-25T10:48:27;11.30;;;4.22;;
62362;SDS011;48396;48.426;1.500;2023-04-25T10:51:10;7.57;;;3.72;;
62362;SDS011;48396;48.426;1.500;2023-04-25T10:53:36;8.20;;;3.70;;
62362;SDS011;48396;48.426;1.500;2023-04-25T10:56:18;10.10;;;3.90;;
62362;SDS011;48396;48.426;1.500;2023-04-25T10:58:45;10.13;;;3.70;;
62362;SDS011;48396;48.426;1.500;2023-04-25T11:01:15;10.65;;;3.38;;
62362;SDS011;48396;48.426;1.500;2023-04-25T11:03:44;10.60;;;3.88;;
62362;SDS011;48396;48.426;1.500;2023-04-25T11:06:15;7.80;;;3.30;;
62362;SDS011;48396;48.426;1.500;2023-04-25T11:08:48;11.07;;;3.67;;
62362;SDS011;48396;48.426;1.500;2023-04-25T11:11:16;9.40;;;3.30;;
62362;SDS011;48396;48.426;1.500;2023-04-25T11:13:42;9.40;;;3.33;;
62362;SDS011;48396;48.426;1.500;2023-04-25T11:16:08;5.68;;;2.80;;
62362;SDS011;48396;48.426;1.500;2023-04-25T11:18:34;7.88;;;3.10;;
62362;SDS011;48396;48.426;1.500;2023-04-25T11:20:59;4.65;;;2.92;;
62362;SDS011;48396;48.426;1.500;2023-04-25T11:23:25;6.15;;;3.03;;
62362;SDS011;48396;48.426;1.500;2023-04-25T11:25:54;5.70;;;2.92;;
62362;SDS011;48396;48.426;1.500;2023-04-25T11:28:21;10.35;;;3.03;;
62362;SDS011;48396;48.426;1.500;2023-04-25T11:30:48;5.35;;;2.72;;
62362;SDS011;48396;48.426;1.500;2023-04-25T11:33:17;7.82;;;3.03;;
62362;SDS011;48396;48.426;1.500;2023-04-25T11:35:47;8.43;;;3.00;;
62362;SDS011;48396;48.426;1.500;2023-04-25T11:38:13;5.20;;;2.78;;
62362;SDS011;48396;48.426;1.500;2023-04-25T11:40:38;6.32;;;3.13;;
62362;SDS011;48396;48.426;1.500;2023-04-25T11:43:05;4.68;;;2.80;;
62362;SDS011;48396;48.426;1.500;2023-04-25T11:45:31;7.10;;;3.00;;
62362;SDS011;48396;48.426;1.500;2023-04-25T11:47:56;6.88;;;2.88;;
62362;SDS011;48396;48.426;1.500;2023-04-25T11:50:22;7.38;;;3.47;;
62362;SDS011;48396;48.426;1.500;2023-04-25T11:52:48;5.50;;;3.10;;
62362;SDS011;48396;48.426;1.500;2023-04-25T11:55:15;6.95;;;3.20;;
62362;SDS011;48396;48.426;1.500;2023-04-25T11:57:45;6.07;;;2.65;;
62362;SDS011;48396;48.426;1.500;2023-04-25T12:02:42;8.15;;;2.78;;
62362;SDS011;48396;48.426;1.500;2023-04-25T12:05:11;9.45;;;3.28;;
62362;SDS011;48396;48.426;1.500;2023-04-25T12:07:39;5.88;;;2.28;;
62362;SDS011;48396;48.426;1.500;2023-04-25T12:10:08;7.25;;;2.80;;
62362;SDS011;48396;48.426;1.500;2023-04-25T12:12:44;8.07;;;3.05;;
62362;SDS011;48396;48.426;1.500;2023-04-25T12:17:52;7.38;;;2.65;;
62362;SDS011;48396;48.426;1.500;2023-04-25T12:20:20;5.57;;;2.80;;
62362;SDS011;48396;48.426;1.500;2023-04-25T12:22:49;6.80;;;2.80;;
62362;SDS011;48396;48.426;1.500;2023-04-25T12:28:17;8.35;;;3.10;;
62362;SDS011;48396;48.426;1.500;2023-04-25T12:33:24;8.43;;;3.00;;
62362;SDS011;48396;48.426;1.500;2023-04-25T12:35:53;6.57;;;2.60;;
62362;SDS011;48396;48.426;1.500;2023-04-25T12:38:22;8.35;;;2.60;;
62362;SDS011;48396;48.426;1.500;2023-04-25T12:40:49;7.43;;;2.63;;
62362;SDS011;48396;48.426;1.500;2023-04-25T12:43:14;3.85;;;2.20;;
62362;SDS011;48396;48.426;1.500;2023-04-25T12:45:40;5.70;;;2.50;;
62362;SDS011;48396;48.426;1.500;2023-04-25T12:48:06;6.30;;;2.88;;
62362;SDS011;48396;48.426;1.500;2023-04-25T12:50:31;6.93;;;2.60;;
62362;SDS011;48396;48.426;1.500;2023-04-25T12:52:57;7.57;;;2.45;;
62362;SDS011;48396;48.426;1.500;2023-04-25T12:55:22;4.65;;;2.83;;
62362;SDS011;48396;48.426;1.500;2023-04-25T12:57:48;7.57;;;2.83;;
62362;SDS011;48396;48.426;1.500;2023-04-25T13:00:13;8.05;;;3.50;;
62362;SDS011;48396;48.426;1.500;2023-04-25T13:02:42;7.85;;;2.80;;
62362;SDS011;48396;48.426;1.500;2023-04-25T13:05:08;6.78;;;2.50;;
62362;SDS011;48396;48.426;1.500;2023-04-25T13:07:34;9.45;;;2.85;;
62362;SDS011;48396;48.426;1.500;2023-04-25T13:09:59;9.05;;;2.75;;
62362;SDS011;48396;48.426;1.500;2023-04-25T13:12:27;6.55;;;2.72;;
62362;SDS011;48396;48.426;1.500;2023-04-25T13:14:53;7.30;;;2.60;;
62362;SDS011;48396;48.426;1.500;2023-04-25T13:17:18;6.63;;;2.60;;
62362;SDS011;48396;48.426;1.500;2023-04-25T13:19:44;8.85;;;2.55;;
62362;SDS011;48396;48.426;1.500;2023-04-25T13:22:09;6.75;;;3.03;;
62362;SDS011;48396;48.426;1.500;2023-04-25T13:24:35;6.70;;;2.70;;
62362;SDS011;48396;48.426;1.500;2023-04-25T13:27:01;4.97;;;2.70;;
62362;SDS011;48396;48.426;1.500;2023-04-25T13:29:27;8.32;;;2.60;;
62362;SDS011;48396;48.426;1.500;2023-04-25T13:31:52;4.50;;;2.33;;
62362;SDS011;48396;48.426;1.500;2023-04-25T13:34:18;6.18;;;2.58;;
62362;SDS011;48396;48.426;1.500;2023-04-25T13:36:43;4.00;;;2.58;;
62362;SDS011;48396;48.426;1.500;2023-04-25T13:39:10;7.13;;;2.47;;
62362;SDS011;48396;48.426;1.500;2023-04-25T13:41:36;7.80;;;2.70;;
62362;SDS011;48396;48.426;1.500;2023-04-25T13:44:02;5.50;;;2.22;;
62362;SDS011;48396;48.426;1.500;2023-04-25T13:46:27;3.90;;;2.40;;
62362;SDS011;48396;48.426;1.500;2023-04-25T13:48:53;6.30;;;2.60;;
62362;SDS011;48396;48.426;1.500;2023-04-25T13:51:18;6.25;;;2.42;;
62362;SDS011;48396;48.426;1.500;2023-04-25T13:53:44;5.40;;;2.60;;
62362;SDS011;48396;48.426;1.500;2023-04-25T13:56:10;3.42;;;2.17;;
62362;SDS011;48396;48.426;1.500;2023-04-25T13:58:36;5.63;;;2.65;;
62362;SDS011;48396;48.426;1.500;2023-04-25T14:01:02;5.18;;;2.40;;
62362;SDS011;48396;48.426;1.500;2023-04-25T14:03:28;7.03;;;2.42;;
62362;SDS011;48396;48.426;1.500;2023-04-25T14:05:55;7.68;;;2.50;;
62362;SDS011;48396;48.426;1.500;2023-04-25T14:08:20;6.68;;;2.90;;
62362;SDS011;48396;48.426;1.500;2023-04-25T14:10:46;7.43;;;2.50;;
62362;SDS011;48396;48.426;1.500;2023-04-25T14:13:12;7.07;;;2.30;;
62362;SDS011;48396;48.426;1.500;2023-04-25T14:18:21;6.97;;;3.03;;
62362;SDS011;48396;48.426;1.500;2023-04-25T14:20:47;6.35;;;2.60;;
62362;SDS011;48396;48.426;1.500;2023-04-25T14:23:13;4.18;;;1.98;;
62362;SDS011;48396;48.426;1.500;2023-04-25T14:25:38;5.05;;;2.05;;
62362;SDS011;48396;48.426;1.500;2023-04-25T14:28:05;9.35;;;2.55;;
62362;SDS011;48396;48.426;1.500;2023-04-25T14:30:31;3.83;;;2.15;;
62362;SDS011;48396;48.426;1.500;2023-04-25T14:32:56;4.63;;;2.40;;
62362;SDS011;48396;48.426;1.500;2023-04-25T14:35:22;6.30;;;2.38;;
62362;SDS011;48396;48.426;1.500;2023-04-25T14:37:48;4.45;;;2.05;;
62362;SDS011;48396;48.426;1.500;2023-04-25T14:40:13;7.28;;;2.35;;
62362;SDS011;48396;48.426;1.500;2023-04-25T14:42:40;3.33;;;2.17;;
62362;SDS011;48396;48.426;1.500;2023-04-25T14:45:06;6.07;;;1.90;;
62362;SDS011;48396;48.426;1.500;2023-04-25T14:50:17;4.95;;;2.13;;
62362;SDS011;48396;48.426;1.500;2023-04-25T14:52:43;4.85;;;2.08;;
62362;SDS011;48396;48.426;1.500;2023-04-25T14:55:10;5.75;;;2.13;;
62362;SDS011;48396;48.426;1.500;2023-04-25T14:57:36;4.45;;;2.10;;
62362;SDS011;48396;48.426;1.500;2023-04-25T15:00:02;4.25;;;1.90;;
62362;SDS011;48396;48.426;1.500;2023-04-25T15:02:30;4.75;;;2.20;;
62362;SDS011;48396;48.426;1.500;2023-04-25T15:04:56;5.75;;;2.38;;